createdAt,value
2022-09-04T00:02:00.139Z,97924.94
2022-09-04T00:04:01.588Z,97926.69
2022-09-04T00:06:02.985Z,97928.47
2022-09-04T00:08:04.326Z,97931.94
2022-09-04T00:10:09.704Z,97932.81
2022-09-04T00:12:11.193Z,97939.66
2022-09-04T00:14:12.507Z,97927.78
2022-09-04T00:16:13.858Z,97932.97
2022-09-04T00:18:15.199Z,97934.75
2022-09-04T00:20:16.514Z,97933.06
2022-09-04T00:22:17.828Z,97934.84
2022-09-04T00:24:19.130Z,97935.72
2022-09-04T00:26:21.221Z,97933.16
2022-09-04T00:28:22.645Z,97930.66
2022-09-04T00:30:24.467Z,97935.75
2022-09-04T00:32:25.827Z,97933.13
2022-09-04T00:34:27.132Z,97937.41
2022-09-04T00:36:28.534Z,97938.31
2022-09-04T00:38:29.887Z,97939.19
2022-09-04T00:40:31.590Z,97938.41
2022-09-04T00:42:33.518Z,97943.47
2022-09-04T00:44:34.835Z,97946.91
2022-09-04T00:46:37.481Z,97945.31
2022-09-04T00:48:39.063Z,97947.09
2022-09-04T00:50:41.031Z,97946.31
2022-09-04T00:52:42.617Z,97945.53
2022-09-04T00:54:45.855Z,97945.56
2022-09-04T00:56:47.203Z,97950.69
2022-09-04T00:58:48.576Z,97949.84
2022-09-04T01:00:49.996Z,97942.28
2022-09-04T01:02:51.344Z,97953.38
2022-09-04T01:04:52.658Z,97946.53
2022-09-04T01:06:53.967Z,97955.91
2022-09-04T01:08:56.154Z,97959.41
2022-09-04T01:10:57.903Z,97962.81
2022-09-04T01:12:59.211Z,97964.50
2022-09-04T01:15:00.635Z,97965.38
2022-09-04T01:17:01.983Z,97965.38
2022-09-04T01:19:03.278Z,97963.75
2022-09-04T01:21:06.488Z,97960.44
2022-09-04T01:23:07.976Z,97959.63
2022-09-04T01:25:09.273Z,97805.22
2022-09-04T01:27:10.583Z,97960.53
2022-09-04T01:29:11.895Z,97960.53
2022-09-04T01:31:13.240Z,97964.81
2022-09-04T01:33:14.618Z,97961.47
2022-09-04T01:35:16.019Z,97963.22
2022-09-04T01:37:17.335Z,97958.97
2022-09-04T01:39:18.669Z,97980.31
2022-09-04T01:41:19.986Z,97961.53
2022-09-04T01:43:21.375Z,97957.31
2022-09-04T01:45:22.736Z,97964.13
2022-09-04T01:47:24.088Z,97966.69
2022-09-04T01:49:25.455Z,97962.44
2022-09-04T01:51:27.062Z,97970.09
2022-09-04T01:53:28.375Z,97975.22
2022-09-04T01:55:34.239Z,97967.63
2022-09-04T01:57:35.615Z,97971.03
2022-09-04T01:59:36.958Z,97968.53
2022-09-04T02:01:39.402Z,97969.38
2022-09-04T02:03:40.710Z,97966.84
2022-09-04T02:05:42.040Z,97971.94
2022-09-04T02:07:43.952Z,97971.09
2022-09-04T02:09:45.295Z,97976.19
2022-09-04T02:11:48.720Z,97979.66
2022-09-04T02:13:51.541Z,97973.72
2022-09-04T02:15:52.874Z,97967.75
2022-09-04T02:17:55.047Z,97969.47
2022-09-04T02:19:57.358Z,97965.19
2022-09-04T02:22:01.212Z,97971.19
2022-09-04T02:24:02.535Z,97965.25
2022-09-04T02:26:03.878Z,97967.84
2022-09-04T02:28:05.176Z,97971.22
2022-09-04T02:30:08.181Z,97973.00
2022-09-04T02:32:09.750Z,97970.47
2022-09-04T02:34:11.296Z,97970.47
2022-09-04T02:36:12.600Z,97965.41
2022-09-04T02:38:13.942Z,97976.47
2022-09-04T02:40:15.532Z,97971.38
2022-09-04T02:42:18.192Z,97977.31
2022-09-04T02:44:19.512Z,97976.56
2022-09-04T02:46:20.895Z,97979.09
2022-09-04T02:48:22.319Z,97979.94
2022-09-04T02:50:24.081Z,97972.28
2022-09-04T02:52:25.819Z,97973.00
2022-09-04T02:54:27.164Z,97972.91
2022-09-04T02:56:31.096Z,97980.47
2022-09-04T02:58:32.455Z,97977.03
2022-09-04T03:00:38.771Z,97979.63
2022-09-04T03:02:40.128Z,97983.88
2022-09-04T03:04:41.478Z,97985.53
2022-09-04T03:06:42.835Z,97988.09
2022-09-04T03:08:46.149Z,97989.84
2022-09-04T03:10:48.322Z,97988.16
2022-09-04T03:12:49.694Z,97989.06
2022-09-04T03:14:51.003Z,97979.69
2022-09-04T03:16:52.333Z,97995.03
2022-09-04T03:18:53.660Z,97975.47
2022-09-04T03:20:55.560Z,97974.63
2022-09-04T03:22:56.863Z,97976.28
2022-09-04T03:24:58.199Z,97980.59
2022-09-04T03:26:59.675Z,97982.28
2022-09-04T03:29:01.106Z,97988.28
2022-09-04T03:31:02.508Z,97987.41
2022-09-04T03:33:03.943Z,97985.78
2022-09-04T03:35:05.241Z,97985.78
2022-09-04T03:37:06.578Z,97993.44
2022-09-04T03:39:07.874Z,97984.94
2022-09-04T03:41:09.180Z,97993.38
2022-09-04T03:43:14.486Z,97988.28
2022-09-04T03:45:15.815Z,97990.81
2022-09-04T03:47:17.127Z,97996.78
2022-09-04T03:49:18.433Z,97991.69
2022-09-04T03:51:25.644Z,97986.63
2022-09-04T03:53:27.280Z,97992.53
2022-09-04T03:55:28.890Z,97989.97
2022-09-04T03:57:30.195Z,97993.38
2022-09-04T03:59:31.525Z,97993.44
2022-09-04T04:01:32.898Z,97997.66
2022-09-04T04:03:34.922Z,97990.91
2022-09-04T04:05:36.941Z,98001.97
2022-09-04T04:07:38.296Z,97990.06
2022-09-04T04:09:39.589Z,97993.44
2022-09-04T04:11:43.740Z,98002.00
2022-09-04T04:13:45.158Z,97996.06
2022-09-04T04:15:46.563Z,98003.72
2022-09-04T04:17:47.925Z,97998.63
2022-09-04T04:19:49.445Z,97994.41
2022-09-04T04:21:57.059Z,97996.13
2022-09-04T04:23:58.399Z,98002.94
2022-09-04T04:26:00.728Z,97996.09
2022-09-04T04:28:02.043Z,98010.59
2022-09-04T04:30:06.758Z,98007.22
2022-09-04T04:32:11.276Z,98014.00
2022-09-04T04:34:12.579Z,98010.66
2022-09-04T04:36:15.421Z,98014.06
2022-09-04T04:38:18.367Z,98020.88
2022-09-04T04:40:19.791Z,98027.66
2022-09-04T04:42:21.103Z,98022.53
2022-09-04T04:44:42.367Z,98018.25
2022-09-04T04:46:43.746Z,98015.78
2022-09-04T04:48:45.133Z,98029.41
2022-09-04T04:50:47.519Z,98023.50
2022-09-04T04:52:49.762Z,98021.72
2022-09-04T04:54:51.450Z,98032.69
2022-09-04T04:56:52.745Z,98036.09
2022-09-04T04:58:54.090Z,98039.50
2022-09-04T05:00:55.409Z,98039.38
2022-09-04T05:02:56.816Z,98042.78
2022-09-04T05:05:02.675Z,98042.78
2022-09-04T05:07:03.977Z,98046.22
2022-09-04T05:09:05.426Z,98044.53
2022-09-04T05:11:06.863Z,98050.50
2022-09-04T05:13:08.212Z,98053.06
2022-09-04T05:15:09.598Z,98053.06
2022-09-04T05:17:10.982Z,98063.28
2022-09-04T05:19:12.322Z,98055.63
2022-09-04T05:21:13.632Z,98061.59
2022-09-04T05:23:14.948Z,98066.72
2022-09-04T05:25:16.263Z,98054.78
2022-09-04T05:27:17.571Z,98055.69
2022-09-04T05:29:18.931Z,98065.00
2022-09-04T05:31:20.359Z,98056.53
2022-09-04T05:33:21.724Z,98053.13
2022-09-04T05:35:23.177Z,98054.84
2022-09-04T05:37:24.587Z,98057.41
2022-09-04T05:39:25.931Z,98066.75
2022-09-04T05:41:27.236Z,98064.22
2022-09-04T05:43:28.633Z,98070.16
2022-09-04T05:45:30.047Z,98071.00
2022-09-04T05:47:31.341Z,98072.72
2022-09-04T05:49:32.646Z,98070.97
2022-09-04T05:51:34.949Z,98081.22
2022-09-04T05:53:37.919Z,98082.03
2022-09-04T05:55:39.231Z,98088.91
2022-09-04T05:57:40.529Z,98088.06
2022-09-04T05:59:43.956Z,98090.63
2022-09-04T06:01:51.194Z,98088.06
2022-09-04T06:03:53.261Z,98095.72
2022-09-04T06:05:54.566Z,98095.72
2022-09-04T06:07:55.974Z,98102.53
2022-09-04T06:09:57.319Z,98098.28
2022-09-04T06:11:58.640Z,98102.59
2022-09-04T06:13:59.943Z,98106.81
2022-09-04T06:16:01.335Z,98110.19
2022-09-04T06:18:02.702Z,98109.34
2022-09-04T06:20:04.604Z,98108.50
2022-09-04T06:22:05.967Z,98111.06
2022-09-04T06:24:07.275Z,98110.25
2022-09-04T06:26:08.635Z,98111.16
2022-09-04T06:28:10.055Z,98121.38
2022-09-04T06:30:11.399Z,98118.81
2022-09-04T06:32:12.704Z,98127.22
2022-09-04T06:34:14.036Z,98112.69
2022-09-04T06:36:15.394Z,98123.72
2022-09-04T06:38:16.702Z,98121.22
2022-09-04T06:40:18.013Z,98119.50
2022-09-04T06:42:21.621Z,98125.50
2022-09-04T06:44:22.941Z,98131.50
2022-09-04T06:46:24.360Z,98140.09
2022-09-04T06:48:25.835Z,98135.88
2022-09-04T06:50:27.494Z,98129.88
2022-09-04T06:52:29.115Z,98140.94
2022-09-04T06:54:32.354Z,98137.53
2022-09-04T06:56:33.767Z,98140.13
2022-09-04T06:58:35.275Z,98149.50
2022-09-04T07:00:36.586Z,98146.88
2022-09-04T07:02:38.227Z,98149.44
2022-09-04T07:04:39.708Z,98152.03
2022-09-04T07:06:41.053Z,98150.31
2022-09-04T07:08:42.366Z,98155.41
2022-09-04T07:10:43.722Z,98159.72
2022-09-04T07:12:45.022Z,98155.41
2022-09-04T07:14:46.321Z,98156.69
2022-09-04T07:16:47.658Z,98160.22
2022-09-04T07:18:48.968Z,98152.78
2022-09-04T07:20:50.285Z,98158.13
2022-09-04T07:22:51.642Z,98159.94
2022-09-04T07:24:54.198Z,98156.66
2022-09-04T07:26:55.534Z,98159.25
2022-09-04T07:28:56.968Z,97866.88
2022-09-04T07:30:58.407Z,98157.69
2022-09-04T07:33:00.228Z,98158.59
2022-09-04T07:35:01.731Z,98160.31
2022-09-04T07:37:04.247Z,98156.09
2022-09-04T07:39:05.598Z,98157.81
2022-09-04T07:41:10.578Z,98163.81
2022-09-04T07:43:14.365Z,98156.16
2022-09-04T07:45:16.651Z,98158.72
2022-09-04T07:47:18.059Z,98166.31
2022-09-04T07:49:19.359Z,98170.47
2022-09-04T07:51:21.551Z,98169.56
2022-09-04T07:53:22.846Z,98172.94
2022-09-04T07:55:24.190Z,98183.09
2022-09-04T07:57:25.571Z,98190.72
2022-09-04T07:59:26.958Z,98191.88
2022-09-04T08:01:28.358Z,98186.69
2022-09-04T08:03:29.739Z,98198.22
2022-09-04T08:05:31.137Z,98193.78
2022-09-04T08:07:32.451Z,98195.00
2022-09-04T08:09:33.920Z,98194.69
2022-09-04T08:11:35.359Z,98202.81
2022-09-04T08:13:36.700Z,98191.94
2022-09-04T08:15:42.226Z,98200.91
2022-09-04T08:17:44.107Z,98204.53
2022-09-04T08:19:45.619Z,98209.16
2022-09-04T08:21:46.921Z,98205.31
2022-09-04T08:23:48.215Z,98202.13
2022-09-04T08:25:49.735Z,98211.50
2022-09-04T08:27:51.675Z,98206.66
2022-09-04T08:29:53.751Z,98216.75
2022-09-04T08:31:55.554Z,98230.13
2022-09-04T08:33:56.864Z,98226.41
2022-09-04T08:35:58.155Z,98231.28
2022-09-04T08:37:59.496Z,98227.38
2022-09-04T08:40:02.062Z,98240.13
2022-09-04T08:42:05.729Z,98243.63
2022-09-04T08:44:07.074Z,98248.44
2022-09-04T08:46:08.655Z,98252.91
2022-09-04T08:48:11.275Z,98239.00
2022-09-04T08:50:12.604Z,98238.97
2022-09-04T08:52:14.612Z,98254.72
2022-09-04T08:54:15.978Z,98245.69
2022-09-04T08:56:18.596Z,98247.72
2022-09-04T08:58:19.983Z,98243.16
2022-09-04T09:00:21.333Z,98250.47
2022-09-04T09:02:22.663Z,98256.34
2022-09-04T09:04:23.978Z,98253.16
2022-09-04T09:06:25.318Z,98247.97
2022-09-04T09:08:31.395Z,98249.38
2022-09-04T09:10:33.013Z,98245.28
2022-09-04T09:12:41.399Z,98249.38
2022-09-04T09:14:42.940Z,98248.50
2022-09-04T09:16:44.502Z,98249.28
2022-09-04T09:18:45.950Z,98239.88
2022-09-04T09:20:47.250Z,98242.38
2022-09-04T09:22:49.020Z,98238.81
2022-09-04T09:24:50.362Z,98240.31
2022-09-04T09:26:51.727Z,98242.81
2022-09-04T09:28:54.542Z,98238.34
2022-09-04T09:30:56.430Z,98238.81
2022-09-04T09:32:57.784Z,98237.69
2022-09-04T09:34:59.147Z,98236.06
2022-09-04T09:37:02.711Z,98238.25
2022-09-04T09:39:04.018Z,98238.47
2022-09-04T09:41:06.450Z,98237.78
2022-09-04T09:43:09.607Z,98236.22
2022-09-04T09:45:10.914Z,98238.91
2022-09-04T09:47:12.218Z,98244.03
2022-09-04T09:49:15.122Z,98244.09
2022-09-04T09:51:16.666Z,98239.91
2022-09-04T09:53:18.002Z,98239.09
2022-09-04T09:55:19.304Z,98239.97
2022-09-04T09:57:20.604Z,98247.69
2022-09-04T09:59:28.614Z,98246.00
2022-09-04T10:01:30.014Z,98246.91
2022-09-04T10:03:31.374Z,98244.38
2022-09-04T10:05:32.686Z,98245.28
2022-09-04T10:07:37.014Z,98241.88
2022-09-04T10:09:38.401Z,98248.75
2022-09-04T10:11:39.733Z,98243.63
2022-09-04T10:13:41.069Z,98247.91
2022-09-04T10:15:42.380Z,98243.66
2022-09-04T10:17:43.704Z,98239.38
2022-09-04T10:19:46.448Z,98240.25
2022-09-04T10:21:47.998Z,98236.03
2022-09-04T10:23:49.341Z,98236.88
2022-09-04T10:25:50.687Z,98232.63
2022-09-04T10:27:52.072Z,98238.66
2022-09-04T10:29:53.448Z,98230.13
2022-09-04T10:31:54.795Z,98232.69
2022-09-04T10:33:57.097Z,98083.78
2022-09-04T10:35:58.426Z,98231.84
2022-09-04T10:37:59.776Z,98234.41
2022-09-04T10:40:19.983Z,98232.75
2022-09-04T10:42:21.287Z,98233.59
2022-09-04T10:44:22.920Z,98236.16
2022-09-04T10:46:25.226Z,98238.72
2022-09-04T10:48:28.778Z,98231.91
2022-09-04T10:50:30.318Z,98229.41
2022-09-04T10:52:31.681Z,98235.38
2022-09-04T10:54:33.027Z,98238.78
2022-09-04T10:56:35.305Z,98237.94
2022-09-04T10:58:39.691Z,98232.81
2022-09-04T11:00:50.243Z,98234.53
2022-09-04T11:02:51.591Z,98233.66
2022-09-04T11:04:53.123Z,98234.53
2022-09-04T11:06:55.171Z,98237.06
2022-09-04T11:08:58.611Z,98237.94
2022-09-04T11:10:59.911Z,98234.56
2022-09-04T11:13:01.274Z,98227.72
2022-09-04T11:15:03.201Z,98236.28
2022-09-04T11:17:04.679Z,98229.41
2022-09-04T11:19:10.387Z,98225.53
2022-09-04T11:21:11.716Z,98215.44
2022-09-04T11:23:13.049Z,98225.81
2022-09-04T11:25:14.387Z,98235.25
2022-09-04T11:27:15.777Z,98228.50
2022-09-04T11:29:17.120Z,98240.44
2022-09-04T11:31:20.906Z,98237.88
2022-09-04T11:33:23.117Z,98240.44
2022-09-04T11:35:24.483Z,98239.59
2022-09-04T11:37:25.787Z,98239.59
2022-09-04T11:39:27.136Z,98237.88
2022-09-04T11:41:29.074Z,98243.00
2022-09-04T11:43:30.415Z,98243.84
2022-09-04T11:45:31.798Z,98243.84
2022-09-04T11:47:33.744Z,98245.53
2022-09-04T11:49:39.842Z,98245.47
2022-09-04T11:51:41.906Z,98238.66
2022-09-04T11:53:43.211Z,98242.91
2022-09-04T11:55:44.554Z,98249.69
2022-09-04T11:57:45.918Z,98248.28
2022-09-04T11:59:47.223Z,98246.00
2022-09-04T12:01:49.160Z,98252.19
2022-09-04T12:03:50.595Z,98249.91
2022-09-04T12:05:51.983Z,98244.88
2022-09-04T12:07:53.283Z,98255.97
2022-09-04T12:09:54.659Z,98253.03
2022-09-04T12:11:56.523Z,98257.00
2022-09-04T12:13:58.030Z,98255.50
2022-09-04T12:15:59.362Z,98261.22
2022-09-04T12:18:00.711Z,98256.31
2022-09-04T12:20:07.206Z,98262.69
2022-09-04T12:22:09.159Z,98265.72
2022-09-04T12:24:10.469Z,98264.50
2022-09-04T12:26:12.495Z,98262.28
2022-09-04T12:28:15.744Z,98119.75
2022-09-04T12:30:17.074Z,98263.53
2022-09-04T12:32:18.365Z,98263.56
2022-09-04T12:34:19.688Z,98270.41
2022-09-04T12:36:21.505Z,98267.84
2022-09-04T12:38:24.522Z,98264.44
2022-09-04T12:40:25.866Z,98254.97
2022-09-04T12:42:27.174Z,98258.38
2022-09-04T12:44:28.501Z,98262.66
2022-09-04T12:46:30.951Z,98268.63
2022-09-04T12:48:33.330Z,98264.41
2022-09-04T12:50:34.638Z,98268.66
2022-09-04T12:52:35.998Z,98262.72
2022-09-04T12:54:38.608Z,98259.47
2022-09-04T12:56:42.131Z,98265.66
2022-09-04T12:58:43.579Z,98266.34
2022-09-04T13:00:49.239Z,98268.00
2022-09-04T13:02:50.886Z,98268.00
2022-09-04T13:04:55.794Z,98262.03
2022-09-04T13:06:58.696Z,98268.00
2022-09-04T13:08:59.994Z,98269.69
2022-09-04T13:11:01.506Z,98267.16
2022-09-04T13:13:03.424Z,98267.16
2022-09-04T13:15:04.951Z,98271.34
2022-09-04T13:17:06.305Z,98264.50
2022-09-04T13:19:08.839Z,98265.38
2022-09-04T13:21:10.150Z,98264.53
2022-09-04T13:23:11.489Z,98273.78
2022-09-04T13:25:13.315Z,98273.63
2022-09-04T13:27:15.898Z,98273.56
2022-09-04T13:29:17.320Z,98275.31
2022-09-04T13:31:19.418Z,98265.88
2022-09-04T13:33:20.872Z,98259.09
2022-09-04T13:35:22.270Z,98271.91
2022-09-04T13:37:23.843Z,98274.47
2022-09-04T13:39:25.251Z,98271.38
2022-09-04T13:41:30.045Z,98267.38
2022-09-04T13:43:32.006Z,98260.59
2022-09-04T13:45:33.342Z,98265.91
2022-09-04T13:47:35.543Z,98264.78
2022-09-04T13:49:37.783Z,98267.16
2022-09-04T13:51:39.118Z,98266.56
2022-09-04T13:53:40.471Z,98269.06
2022-09-04T13:55:41.839Z,98257.03
2022-09-04T13:57:43.151Z,98268.25
2022-09-04T13:59:44.447Z,98267.22
2022-09-04T14:01:49.343Z,98267.22
2022-09-04T14:03:50.827Z,98269.09
2022-09-04T14:05:52.235Z,98269.91
2022-09-04T14:07:53.545Z,98276.97
2022-09-04T14:09:54.878Z,98263.50
2022-09-04T14:11:57.970Z,98269.91
2022-09-04T14:14:03.301Z,98266.16
2022-09-04T14:16:04.859Z,98263.56
2022-09-04T14:18:06.506Z,98269.56
2022-09-04T14:20:10.498Z,98272.09
2022-09-04T14:22:11.836Z,98267.88
2022-09-04T14:24:13.763Z,98272.81
2022-09-04T14:26:15.078Z,98267.78
2022-09-04T14:28:16.383Z,98272.97
2022-09-04T14:30:18.152Z,98271.19
2022-09-04T14:32:19.489Z,98270.66
2022-09-04T14:34:22.478Z,98279.72
2022-09-04T14:36:23.837Z,98278.88
2022-09-04T14:38:27.182Z,98272.72
2022-09-04T14:40:28.530Z,98279.72
2022-09-04T14:42:29.838Z,98273.81
2022-09-04T14:44:31.148Z,98276.50
2022-09-04T14:46:32.474Z,98277.25
2022-09-04T14:48:33.807Z,98287.66
2022-09-04T14:50:35.119Z,98279.81
2022-09-04T14:52:39.834Z,98277.91
2022-09-04T14:54:44.423Z,98280.13
2022-09-04T14:56:46.006Z,98283.66
2022-09-04T14:58:50.582Z,98282.47
2022-09-04T15:00:52.364Z,98280.59
2022-09-04T15:02:53.686Z,98289.69
2022-09-04T15:04:56.395Z,98296.06
2022-09-04T15:07:11.153Z,98288.66
2022-09-04T15:09:13.160Z,98291.41
2022-09-04T15:11:14.474Z,98294.50
2022-09-04T15:13:15.794Z,98292.78
2022-09-04T15:15:17.155Z,98281.75
2022-09-04T15:17:26.121Z,98288.56
2022-09-04T15:19:27.754Z,98293.47
2022-09-04T15:21:29.105Z,98286.25
2022-09-04T15:23:30.474Z,98289.78
2022-09-04T15:25:56.769Z,98292.78
2022-09-04T15:27:53.167Z,98287.09
2022-09-04T15:29:54.496Z,98291.13
2022-09-04T15:31:55.845Z,98298.53
2022-09-04T15:33:57.181Z,98296.31
2022-09-04T15:35:58.506Z,98303.34
2022-09-04T15:38:01.917Z,98306.00
2022-09-04T15:40:03.858Z,98302.66
2022-09-04T15:42:05.371Z,98296.81
2022-09-04T15:44:06.756Z,98299.31
2022-09-04T15:46:08.122Z,98293.47
2022-09-04T15:48:11.221Z,98301.19
2022-09-04T15:50:12.703Z,98292.75
2022-09-04T15:52:14.151Z,98304.69
2022-09-04T15:54:15.559Z,98299.63
2022-09-04T15:56:16.875Z,98304.00
2022-09-04T15:58:19.632Z,98311.78
2022-09-04T16:00:21.062Z,98311.81
2022-09-04T16:02:22.465Z,98301.59
2022-09-04T16:04:26.368Z,98304.22
2022-09-04T16:06:30.053Z,98307.69
2022-09-04T16:08:31.844Z,98310.38
2022-09-04T16:10:37.542Z,98313.88
2022-09-04T16:12:39.363Z,98313.06
2022-09-04T16:14:44.684Z,98315.69
2022-09-04T16:16:46.962Z,98312.38
2022-09-04T16:18:48.274Z,98316.75
2022-09-04T16:20:51.291Z,98315.91
2022-09-04T16:22:52.651Z,98320.22
2022-09-04T16:24:54.006Z,98327.09
2022-09-04T16:26:55.398Z,98316.94
2022-09-04T16:28:56.710Z,98325.47
2022-09-04T16:30:58.019Z,98321.28
2022-09-04T16:32:59.551Z,98327.25
2022-09-04T16:35:00.870Z,98323.09
2022-09-04T16:37:02.267Z,98322.28
2022-09-04T16:39:03.574Z,98336.78
2022-09-04T16:41:06.064Z,98334.28
2022-09-04T16:43:09.623Z,98331.75
2022-09-04T16:45:10.923Z,98339.44
2022-09-04T16:47:12.476Z,98347.97
2022-09-04T16:49:19.847Z,98347.19
2022-09-04T16:51:39.429Z,98368.50
2022-09-04T16:53:42.178Z,98359.22
2022-09-04T16:55:44.574Z,98360.06
2022-09-04T16:57:46.149Z,98359.28
2022-09-04T16:59:48.537Z,98360.13
2022-09-04T17:01:49.953Z,98360.13
2022-09-04T17:03:51.992Z,98366.13
2022-09-04T17:06:12.786Z,98370.44
2022-09-04T17:08:14.239Z,98246.81
2022-09-04T17:10:15.579Z,98375.63
2022-09-04T17:12:18.180Z,98373.06
2022-09-04T17:14:19.682Z,98373.09
2022-09-04T17:16:21.927Z,98370.56
2022-09-04T17:18:23.449Z,98372.31
2022-09-04T17:20:40.174Z,98368.91
2022-09-04T17:28:00.816Z,98373.22
2022-09-04T17:28:56.268Z,98379.19
2022-09-04T17:29:13.985Z,98380.09
2022-09-04T17:29:52.382Z,98381.81
2022-09-04T17:31:55.838Z,98385.25
2022-09-04T17:37:28.807Z,98379.28
2022-09-04T17:40:34.874Z,98386.13
2022-09-04T17:40:51.298Z,98388.69
2022-09-04T17:41:36.418Z,98385.34
2022-09-04T17:43:24.147Z,98381.13
2022-09-04T17:45:27.966Z,98393.91
2022-09-04T17:47:29.331Z,98397.34
2022-09-04T17:49:34.373Z,98389.69
2022-09-04T17:51:36.243Z,98393.97
2022-09-04T17:53:38.287Z,98400.78
2022-09-04T17:55:47.464Z,98394.00
2022-09-04T17:57:49.344Z,98399.09
2022-09-04T17:59:50.663Z,98397.44
2022-09-04T18:01:52.020Z,98406.81
2022-09-04T18:04:02.756Z,98406.00
2022-09-04T18:06:15.614Z,98410.28
2022-09-04T18:08:17.947Z,98410.28
2022-09-04T18:10:19.280Z,98413.72
2022-09-04T18:12:21.391Z,98418.84
2022-09-04T18:14:23.043Z,98414.59
2022-09-04T18:16:27.009Z,98421.41
2022-09-04T18:18:28.952Z,98421.44
2022-09-04T18:20:31.254Z,98420.59
2022-09-04T18:22:33.867Z,98424.03
2022-09-04T18:24:35.366Z,98425.84
2022-09-04T18:26:40.872Z,98426.66
2022-09-04T18:28:47.305Z,98429.19
2022-09-04T18:36:21.238Z,98432.63
2022-09-04T18:37:16.529Z,98432.63
2022-09-04T18:37:26.214Z,98438.59
2022-09-04T18:37:56.314Z,98436.84
2022-09-04T18:39:58.269Z,98444.16
2022-09-04T18:50:20.163Z,98445.00
2022-09-04T18:50:25.658Z,98447.63
2022-09-04T18:50:29.881Z,98446.13
2022-09-04T18:50:46.368Z,98448.69
2022-09-04T18:51:30.555Z,98454.97
2022-09-04T18:55:34.264Z,98450.25
2022-09-04T18:57:36.262Z,98454.91
2022-09-04T18:59:37.636Z,98454.97
2022-09-04T19:01:39.010Z,98464.44
2022-09-04T19:03:40.663Z,98457.41
2022-09-04T19:05:45.571Z,98458.97
2022-09-04T19:09:55.358Z,98458.63
2022-09-04T19:11:57.315Z,98458.28
2022-09-04T19:13:59.330Z,98462.84
2022-09-04T19:16:11.626Z,98452.31
2022-09-04T19:18:16.998Z,98451.16
2022-09-04T19:20:18.387Z,98443.06
2022-09-04T19:22:28.203Z,98450.16
2022-09-04T19:24:31.461Z,98454.09
2022-09-04T19:26:36.149Z,98445.69
2022-09-04T19:28:37.498Z,98455.34
2022-09-04T19:30:40.728Z,98454.09
2022-09-04T19:32:42.235Z,98463.25
2022-09-04T19:34:45.310Z,98460.34
2022-09-04T19:36:46.645Z,98461.44
2022-09-04T19:44:01.221Z,98461.63
2022-09-04T19:46:02.982Z,98456.63
2022-09-04T19:46:11.431Z,98460.84
2022-09-04T19:46:16.920Z,98462.53
2022-09-04T19:48:18.671Z,98469.94
2022-09-04T19:53:21.448Z,98462.44
2022-09-04T19:53:33.981Z,98464.75
2022-09-04T19:55:24.927Z,98460.59
2022-09-04T19:57:32.237Z,98461.50
2022-09-04T19:59:34.910Z,98460.75
2022-09-04T20:01:36.243Z,98469.34
2022-09-04T20:03:37.906Z,98464.28
2022-09-04T20:05:40.798Z,98469.44
2022-09-04T20:07:42.144Z,98467.78
2022-09-04T20:09:43.467Z,98465.28
2022-09-04T20:11:46.544Z,98464.47
2022-09-04T20:13:47.859Z,98472.16
2022-09-04T20:15:49.188Z,98470.47
2022-09-04T20:17:51.700Z,98470.47
2022-09-04T20:19:53.015Z,98476.44
2022-09-04T20:21:55.250Z,98471.38
2022-09-04T20:23:56.659Z,98465.41
2022-09-04T20:25:58.046Z,98473.97
2022-09-04T20:27:59.363Z,98471.41
2022-09-04T20:30:01.642Z,98475.69
2022-09-04T20:32:04.288Z,98473.97
2022-09-04T20:34:09.569Z,98474.84
2022-09-04T20:36:11.095Z,98481.66
2022-09-04T20:38:23.504Z,98475.72
2022-09-04T20:40:27.000Z,98474.94
2022-09-04T20:42:28.699Z,98480.03
2022-09-04T20:44:30.027Z,98474.06
2022-09-04T20:49:41.679Z,98473.28
2022-09-04T20:52:50.063Z,98474.97
2022-09-04T20:53:06.042Z,98477.53
2022-09-04T20:53:35.561Z,98475.03
2022-09-04T20:55:36.934Z,98474.16
2022-09-04T21:03:12.592Z,98472.47
2022-09-04T21:03:18.288Z,98467.41
2022-09-04T21:03:20.866Z,98473.31
2022-09-04T21:04:49.947Z,98479.34
2022-09-04T21:06:52.084Z,98478.47
2022-09-04T21:08:53.547Z,98475.97
2022-09-04T21:10:54.930Z,98481.09
2022-09-04T21:13:14.335Z,98478.53
2022-09-04T21:15:16.063Z,98481.13
2022-09-04T21:17:34.029Z,98489.66
2022-09-04T21:19:36.644Z,98493.91
2022-09-04T21:21:38.174Z,98490.50
2022-09-04T21:23:39.527Z,98496.47
2022-09-04T21:25:40.923Z,98500.66
2022-09-04T21:27:42.230Z,98498.88
2022-09-04T21:29:43.588Z,98501.41
2022-09-04T21:31:46.189Z,98503.97
2022-09-04T21:33:48.343Z,98498.84
2022-09-04T21:35:50.410Z,98498.84
2022-09-04T21:37:51.751Z,98493.72
2022-09-04T21:39:57.717Z,98502.28
2022-09-04T21:41:59.674Z,98501.44
2022-09-04T21:44:03.097Z,98504.00
2022-09-04T21:46:06.131Z,98504.81
2022-09-04T21:48:16.271Z,98506.50
2022-09-04T21:50:20.343Z,98509.91
2022-09-04T21:52:24.651Z,98509.03
2022-09-04T21:54:37.489Z,98513.28
2022-09-04T22:02:29.145Z,98512.41
2022-09-04T22:02:30.210Z,98514.94
2022-09-04T22:02:49.575Z,98510.72
2022-09-04T22:03:52.894Z,98514.13
2022-09-04T22:05:54.607Z,98511.59
2022-09-04T22:12:16.854Z,98512.44
2022-09-04T22:13:34.542Z,98509.03
2022-09-04T22:13:38.286Z,98508.19
2022-09-04T22:15:10.374Z,98510.78
2022-09-04T22:17:11.686Z,98511.63
2022-09-04T22:19:16.440Z,98507.38
2022-09-04T22:21:18.307Z,98515.03
2022-09-04T22:23:20.338Z,98511.63
2022-09-04T22:25:21.831Z,98509.94
2022-09-04T22:27:23.154Z,98515.03
2022-09-04T22:29:33.839Z,98510.78
2022-09-04T22:31:41.512Z,98509.06
2022-09-04T22:34:14.551Z,98374.22
2022-09-04T22:36:04.258Z,98510.78
2022-09-04T22:38:05.579Z,98509.06
2022-09-04T22:40:07.183Z,98512.53
2022-09-04T22:42:08.547Z,98521.03
2022-09-04T22:44:15.526Z,98509.97
2022-09-04T22:46:16.940Z,98510.78
2022-09-04T22:48:18.283Z,98513.34
2022-09-04T22:50:19.587Z,98511.63
2022-09-04T22:52:30.366Z,98511.63
2022-09-04T22:54:31.668Z,98515.03
2022-09-04T22:56:32.982Z,98520.16
2022-09-04T22:58:34.284Z,98517.63
2022-09-04T23:00:35.890Z,98517.63
2022-09-04T23:03:07.256Z,98517.66
2022-09-04T23:04:59.648Z,98521.06
2022-09-04T23:13:42.931Z,98517.69
2022-09-04T23:13:49.616Z,98515.97
2022-09-04T23:13:57.219Z,98512.56
2022-09-04T23:14:07.558Z,98518.53
2022-09-04T23:16:09.624Z,98515.94
2022-09-04T23:20:50.183Z,98517.66
2022-09-04T23:26:35.051Z,98510.78
2022-09-04T23:26:39.193Z,98513.34
2022-09-04T23:26:48.001Z,98509.91
2022-09-04T23:27:36.904Z,98501.34
2022-09-04T23:29:41.343Z,98496.28
2022-09-04T23:31:46.400Z,98498.03
2022-09-04T23:33:49.448Z,98504.00
2022-09-04T23:35:50.821Z,98504.91
2022-09-04T23:38:00.707Z,98503.25
2022-09-04T23:40:03.701Z,98500.69
2022-09-04T23:42:05.508Z,98500.69
2022-09-04T23:44:06.990Z,98496.38
2022-09-04T23:46:08.688Z,98498.97
2022-09-04T23:48:10.102Z,98505.81
2022-09-04T23:50:11.659Z,98503.25
2022-09-04T23:52:13.028Z,98500.69
2022-09-04T23:54:25.232Z,98507.56
2022-09-04T23:56:26.962Z,98493.91
2022-09-04T23:58:51.763Z,98502.41
